x

Western Hawaii - 205 Nm Sw Of Honolulu, Hi (51003) Wave Buoy

7:50am - Tue 30th Aug 2016 All times are HST. -10 hours from GMT.

  • Sig Wave height 5.9ft
  • Swell Direction
  • Peak Period 8s
  • Average Period 6s
  • Wind
    16mph, 18mph gusts
  • Sea Temp 83°f
  • Air Temp 77°f
  • Sea Pressure 1015mb
  • Western  Hawaii - 205 Nm Sw Of Honolulu, Hi
  • Western  Hawaii - 205 Nm Sw Of Honolulu, Hi

More Historic Weather Station data

Upgrade to MSW Pro to gain access to the past 30 days of data for over 8000 Wavebouys and Weather Stations around the globe.

Join Pro

Comparision Forecast

View Surf forecast
   
Tue 08/30 7:50am 6ft 8s 6s 16 18 mph 1015mb 83f 77f
6:50am 6ft 7s 6s 18 22 mph 1014.2mb 83f 79f
5:50am 6ft 8s 6s 16 20 mph 1013.5mb 83f 81f
4:50am 6ft 8s 6s 16 20 mph 1013.3mb 83f 81f
3:50am 6.5ft 8s 6s 16 20 mph 1013.2mb 83f 81f
2:50am 6.5ft 8s 6s 16 18 mph 1013.6mb 83f 81f
1:50am 6ft 7s 6s 18 20 mph 1014.2mb 83f 81f
12:50am 5.5ft 7s 6s 18 20 mph 1014.8mb 83f 82f
Mon 08/29 11:50pm 6ft 8s 6s 18 20 mph 1015.1mb 83f 82f
10:50pm 6.5ft 9s 6s 18 20 mph 1015.5mb 83f 82f
9:50pm 6ft 8s 6s 18 20 mph 1015.3mb 83f 82f
8:50pm 7ft 8s 6s 18 22 mph 1014.8mb 83f 82f
7:50pm 6.5ft 8s 6s 18 22 mph 1013.9mb 83f 82f
6:50pm 7ft 7s 6s 18 20 mph 1013.1mb 83f 82f
5:50pm 6ft 9s 6s 18 22 mph 1012.9mb 83f 81f
4:50pm 6.5ft 7s 6s 18 20 mph 1012.6mb 83f 82f
3:50pm 6.5ft 8s 6s 16 18 mph 1012.5mb 83f 82f
2:50pm 6ft 7s 6s 16 20 mph 1012.8mb 83f 81f
1:50pm 6ft 7s 6s 18 22 mph 1013.5mb 83f 82f
12:50pm 6ft 8s 6s 16 18 mph 1014.1mb 83f 82f
11:50am 6ft 7s 6s 11 13 mph 1014.6mb 83f 82f
10:50am 6ft 8s 6s 13 16 mph 1014.6mb 83f 81f
9:50am 6.5ft 7s 6s 11 16 mph 1014.6mb 83f 82f
8:50am 6ft 8s 6s 11 13 mph 1014.4mb 83f 81f
7:50am 6ft 7s 6s 13 16 mph 1014mb 83f 81f
6:50am 5ft 7s 6s 13 18 mph 1013.5mb 83f 81f
5:50am 5ft 7s 6s 13
mph
1013mb 83f 81f
4:50am 5ft 8s 6s 13 18 mph 1012.6mb 83f 81f
3:50am 5ft 8s 6s 16 18 mph 1012.6mb 83f 81f
2:50am 5ft 8s 6s 13 16 mph 1012.7mb 83f 81f
1:50am 5ft 6s 6s 13 16 mph 1013mb 83f 81f
12:50am 5ft 8s 6s 13 16 mph 1013.6mb 83f 82f
Sun 08/28 11:50pm 5ft 8s 6s 13 16 mph 1013.8mb 83f 82f
10:50pm 5ft 7s 6s 13 18 mph 1013.8mb 83f 82f
9:50pm 5.5ft 7s 6s 13 18 mph 1013.8mb 83f 82f
8:50pm 5ft 7s 6s 16 18 mph 1013.5mb 83f 82f
7:50pm 5ft 7s 6s 13 18 mph 1012.8mb 83f 82f
6:50pm 5ft 7s 6s 11 13 mph 1012.1mb 83f 81f
5:50pm 5ft 7s 6s 9 11 mph 1011.4mb 83f 81f
4:50pm 5.5ft 7s 6s 13 16 mph 1011mb 83f 81f
3:50pm 5ft 8s 6s 11 13 mph 1011mb 83f 80f
2:50pm 5.5ft 8s 6s 13 18 mph 1011.5mb 83f 79f
1:50pm 6ft 8s 6s 16 18 mph 1012.2mb 83f 78f
12:50pm 5.5ft 8s 6s 13 16 mph 1012.7mb 83f 80f
11:50am 5.5ft 7s 6s 7 9 mph 1013.1mb 83f 81f
10:50am 6ft 7s 6s 9
mph
1013.5mb 83f 80f
9:50am 5ft 7s 6s 9 11 mph 1013.6mb 83f 80f
8:50am 5ft 7s 6s 9 11 mph 1013.1mb 83f 81f
7:50am 5ft 7s 6s 11 13 mph 1012.7mb 83f 80f
6:50am 5ft 8s 6s 11 13 mph 1012.3mb 83f 80f
5:50am 4.5ft 7s 6s 11 13 mph 1011.7mb 83f 80f
4:50am 5ft 14s 6s 9 11 mph 1011.5mb 83f 80f
3:50am 4.5ft 13s 6s 11 16 mph 1011.5mb 83f 80f
2:50am 4.5ft 13s 6s 13
mph
1011.9mb 83f 80f
1:50am 4.5ft 13s 6s 13 16 mph 1012.4mb 83f 80f
12:50am 5ft 8s 6s 11 13 mph 1013.2mb 83f 80f
Sat 08/27 11:50pm 5ft 7s 6s 16 18 mph 1013.6mb 83f 80f
9:50pm 5ft 8s 6s 18 20 mph 1014mb 83f 79f
8:50pm 5ft 8s 6s 16 20 mph 1013.5mb 83f 79f
7:50pm 5ft 7s 6s 16 20 mph 1013mb 83f 79f
6:50pm 5ft 8s 6s 13 20 mph 1012.4mb 83f 80f
4:50pm 5ft 15s 6s 11 16 mph 1011.7mb 83f 79f
3:50pm 5ft 7s 6s 11 16 mph 1011.9mb 83f 80f
2:50pm 5.5ft 8s 7s 11 16 mph 1012.2mb 83f 80f
1:50pm 5.5ft 8s 6s 13 16 mph 1012.9mb 83f 80f
12:50pm 6ft 8s 6s 13 16 mph 1013.6mb 83f 80f
11:50am 6ft 7s 7s 2 4 mph 1014.3mb 83f 78f
10:50am 6ft 8s 6s 11 13 mph 1014.5mb 83f 81f
9:50am 6ft 8s 7s 16 18 mph 1014.2mb 83f 81f
8:50am 6ft 8s 6s 16 18 mph 1014.1mb 83f 81f
7:50am 6ft 8s 6s 16 18 mph 1013.8mb 83f 81f
6:50am 6ft 7s 6s 16 18 mph 1013.7mb 83f 81f
5:50am 6ft 8s 6s 16 18 mph 1013.3mb 83f 81f
4:50am 6ft 8s 7s 16 18 mph 1013.1mb 83f 81f
3:50am 6ft 8s 7s 16 20 mph 1013.3mb 83f 80f
2:50am 6ft 8s 7s 7 13 mph 1013.9mb 83f 79f
1:50am 5.5ft 8s 7s 11 16 mph 1014.3mb 83f 81f
12:50am 6ft 8s 7s 7 9 mph 1015mb 83f 81f
Fri 08/26 11:50pm 6ft 8s 7s 11 16 mph 1015.6mb 83f 81f
10:50pm 5.5ft 8s 6s 11 13 mph 1015.8mb 83f 81f
9:50pm 5ft 8s 6s 13 18 mph 1015.9mb 83f 82f
8:50pm 5.5ft 8s 6s 13 18 mph 1015.4mb 83f 82f
7:50pm 5ft 13s 6s 13 16 mph 1014.8mb 83f 82f